sensor_id;sensor_type;location;lat;lon;timestamp;P1;durP1;ratioP1;P2;durP2;ratioP2
55364;SDS011;41245;45.384;20.390;2022-09-12T00:00:40;0.98;;;0.50;;
55364;SDS011;41245;45.384;20.390;2022-09-12T00:03:06;0.80;;;0.73;;
55364;SDS011;41245;45.384;20.390;2022-09-12T00:05:31;2.00;;;0.90;;
55364;SDS011;41245;45.384;20.390;2022-09-12T00:07:58;1.10;;;0.80;;
55364;SDS011;41245;45.384;20.390;2022-09-12T00:10:25;0.70;;;0.70;;
55364;SDS011;41245;45.384;20.390;2022-09-12T00:12:51;1.60;;;0.70;;
55364;SDS011;41245;45.384;20.390;2022-09-12T00:15:17;0.57;;;0.57;;
55364;SDS011;41245;45.384;20.390;2022-09-12T00:17:43;2.47;;;0.90;;
55364;SDS011;41245;45.384;20.390;2022-09-12T00:20:09;0.90;;;0.80;;
55364;SDS011;41245;45.384;20.390;2022-09-12T00:22:35;1.88;;;0.68;;
55364;SDS011;41245;45.384;20.390;2022-09-12T00:25:02;1.25;;;1.15;;
55364;SDS011;41245;45.384;20.390;2022-09-12T00:27:28;3.55;;;0.80;;
55364;SDS011;41245;45.384;20.390;2022-09-12T00:29:53;3.58;;;1.05;;
55364;SDS011;41245;45.384;20.390;2022-09-12T00:32:19;0.90;;;0.80;;
55364;SDS011;41245;45.384;20.390;2022-09-12T00:34:45;1.83;;;0.70;;
55364;SDS011;41245;45.384;20.390;2022-09-12T00:37:11;0.85;;;0.85;;
55364;SDS011;41245;45.384;20.390;2022-09-12T00:39:37;2.85;;;0.95;;
55364;SDS011;41245;45.384;20.390;2022-09-12T00:42:03;2.60;;;0.93;;
55364;SDS011;41245;45.384;20.390;2022-09-12T00:47:03;3.17;;;1.20;;
55364;SDS011;41245;45.384;20.390;2022-09-12T00:50:11;7.55;;;1.33;;
55364;SDS011;41245;45.384;20.390;2022-09-12T00:52:51;1.80;;;1.10;;
55364;SDS011;41245;45.384;20.390;2022-09-12T00:55:23;3.08;;;1.10;;
55364;SDS011;41245;45.384;20.390;2022-09-12T00:57:51;2.10;;;1.10;;
55364;SDS011;41245;45.384;20.390;2022-09-12T01:00:22;3.17;;;1.48;;
55364;SDS011;41245;45.384;20.390;2022-09-12T01:02:57;1.58;;;1.17;;
55364;SDS011;41245;45.384;20.390;2022-09-12T01:05:29;2.23;;;1.10;;
55364;SDS011;41245;45.384;20.390;2022-09-12T01:07:58;2.77;;;1.40;;
55364;SDS011;41245;45.384;20.390;2022-09-12T01:10:26;2.75;;;1.60;;
55364;SDS011;41245;45.384;20.390;2022-09-12T01:12:52;5.43;;;1.55;;
55364;SDS011;41245;45.384;20.390;2022-09-12T01:15:18;1.92;;;1.55;;
55364;SDS011;41245;45.384;20.390;2022-09-12T01:20:20;3.17;;;1.55;;
55364;SDS011;41245;45.384;20.390;2022-09-12T01:28:52;3.22;;;1.80;;
55364;SDS011;41245;45.384;20.390;2022-09-12T01:31:24;3.80;;;1.50;;
55364;SDS011;41245;45.384;20.390;2022-09-12T01:33:59;2.55;;;1.40;;
55364;SDS011;41245;45.384;20.390;2022-09-12T01:36:42;3.40;;;1.05;;
55364;SDS011;41245;45.384;20.390;2022-09-12T01:55:30;3.20;;;1.10;;
55364;SDS011;41245;45.384;20.390;2022-09-12T01:58:25;5.35;;;1.52;;
55364;SDS011;41245;45.384;20.390;2022-09-12T02:01:02;1.77;;;1.25;;
55364;SDS011;41245;45.384;20.390;2022-09-12T02:03:36;1.58;;;1.10;;
55364;SDS011;41245;45.384;20.390;2022-09-12T02:06:14;1.63;;;1.40;;
55364;SDS011;41245;45.384;20.390;2022-09-12T02:08:50;2.22;;;1.35;;
55364;SDS011;41245;45.384;20.390;2022-09-12T02:11:19;4.28;;;1.30;;
55364;SDS011;41245;45.384;20.390;2022-09-12T02:16:18;1.02;;;1.00;;
55364;SDS011;41245;45.384;20.390;2022-09-12T02:18:49;2.00;;;1.80;;
55364;SDS011;41245;45.384;20.390;2022-09-12T02:21:19;1.25;;;1.08;;
55364;SDS011;41245;45.384;20.390;2022-09-12T02:23:47;6.93;;;1.42;;
55364;SDS011;41245;45.384;20.390;2022-09-12T02:26:33;2.05;;;1.35;;
55364;SDS011;41245;45.384;20.390;2022-09-12T02:29:02;2.03;;;1.55;;
55364;SDS011;41245;45.384;20.390;2022-09-12T02:39:42;2.20;;;1.50;;
55364;SDS011;41245;45.384;20.390;2022-09-12T02:42:08;1.85;;;1.35;;
55364;SDS011;41245;45.384;20.390;2022-09-12T02:44:35;3.97;;;1.50;;
55364;SDS011;41245;45.384;20.390;2022-09-12T02:47:06;5.07;;;1.80;;
55364;SDS011;41245;45.384;20.390;2022-09-12T02:49:36;1.58;;;1.00;;
55364;SDS011;41245;45.384;20.390;2022-09-12T02:52:02;3.40;;;1.77;;
55364;SDS011;41245;45.384;20.390;2022-09-12T02:54:28;1.35;;;1.23;;
55364;SDS011;41245;45.384;20.390;2022-09-12T02:56:55;2.20;;;1.50;;
55364;SDS011;41245;45.384;20.390;2022-09-12T02:59:21;4.40;;;1.50;;
55364;SDS011;41245;45.384;20.390;2022-09-12T03:04:26;1.38;;;1.27;;
55364;SDS011;41245;45.384;20.390;2022-09-12T03:15:27;4.95;;;1.85;;
55364;SDS011;41245;45.384;20.390;2022-09-12T03:27:12;2.20;;;1.70;;
55364;SDS011;41245;45.384;20.390;2022-09-12T03:29:14;3.20;;;2.03;;
55364;SDS011;41245;45.384;20.390;2022-09-12T03:31:48;2.95;;;1.77;;
55364;SDS011;41245;45.384;20.390;2022-09-12T03:34:16;2.08;;;1.52;;
55364;SDS011;41245;45.384;20.390;2022-09-12T03:36:42;4.07;;;2.50;;
55364;SDS011;41245;45.384;20.390;2022-09-12T03:39:08;2.47;;;1.40;;
55364;SDS011;41245;45.384;20.390;2022-09-12T03:41:33;2.58;;;1.70;;
55364;SDS011;41245;45.384;20.390;2022-09-12T03:43:59;2.05;;;1.85;;
55364;SDS011;41245;45.384;20.390;2022-09-12T03:46:25;2.17;;;1.98;;
55364;SDS011;41245;45.384;20.390;2022-09-12T03:48:50;2.78;;;1.90;;
55364;SDS011;41245;45.384;20.390;2022-09-12T03:51:16;2.35;;;2.00;;
55364;SDS011;41245;45.384;20.390;2022-09-12T03:53:42;2.17;;;2.05;;
55364;SDS011;41245;45.384;20.390;2022-09-12T03:56:08;2.53;;;1.90;;
55364;SDS011;41245;45.384;20.390;2022-09-12T03:58:35;4.63;;;1.73;;
55364;SDS011;41245;45.384;20.390;2022-09-12T04:03:37;4.70;;;2.72;;
55364;SDS011;41245;45.384;20.390;2022-09-12T04:06:04;3.50;;;2.03;;
55364;SDS011;41245;45.384;20.390;2022-09-12T04:08:30;5.25;;;2.08;;
55364;SDS011;41245;45.384;20.390;2022-09-12T04:11:01;2.50;;;2.17;;
55364;SDS011;41245;45.384;20.390;2022-09-12T04:13:27;2.42;;;2.17;;
55364;SDS011;41245;45.384;20.390;2022-09-12T04:15:56;4.53;;;1.80;;
55364;SDS011;41245;45.384;20.390;2022-09-12T04:18:23;2.40;;;2.00;;
55364;SDS011;41245;45.384;20.390;2022-09-12T04:20:49;3.42;;;2.20;;
55364;SDS011;41245;45.384;20.390;2022-09-12T04:23:15;3.17;;;2.55;;
55364;SDS011;41245;45.384;20.390;2022-09-12T04:25:40;2.45;;;2.15;;
55364;SDS011;41245;45.384;20.390;2022-09-12T04:28:06;6.10;;;2.33;;
55364;SDS011;41245;45.384;20.390;2022-09-12T04:30:32;9.50;;;2.85;;
55364;SDS011;41245;45.384;20.390;2022-09-12T04:32:58;3.90;;;2.42;;
55364;SDS011;41245;45.384;20.390;2022-09-12T04:35:24;3.47;;;2.05;;
55364;SDS011;41245;45.384;20.390;2022-09-12T04:37:50;5.60;;;2.95;;
55364;SDS011;41245;45.384;20.390;2022-09-12T04:40:16;2.83;;;2.22;;
55364;SDS011;41245;45.384;20.390;2022-09-12T04:42:42;2.90;;;2.20;;
55364;SDS011;41245;45.384;20.390;2022-09-12T04:45:08;3.38;;;2.13;;
55364;SDS011;41245;45.384;20.390;2022-09-12T04:47:34;5.43;;;2.83;;
55364;SDS011;41245;45.384;20.390;2022-09-12T04:50:00;5.63;;;2.72;;
55364;SDS011;41245;45.384;20.390;2022-09-12T04:52:26;2.65;;;2.42;;
55364;SDS011;41245;45.384;20.390;2022-09-12T04:54:52;2.90;;;2.25;;
55364;SDS011;41245;45.384;20.390;2022-09-12T04:57:17;5.90;;;3.00;;
55364;SDS011;41245;45.384;20.390;2022-09-12T04:59:43;5.40;;;3.40;;
55364;SDS011;41245;45.384;20.390;2022-09-12T05:02:09;5.75;;;2.80;;
55364;SDS011;41245;45.384;20.390;2022-09-12T05:04:34;2.95;;;2.75;;
55364;SDS011;41245;45.384;20.390;2022-09-12T05:07:00;7.28;;;2.97;;
55364;SDS011;41245;45.384;20.390;2022-09-12T05:09:27;4.07;;;2.33;;
55364;SDS011;41245;45.384;20.390;2022-09-12T05:11:53;4.70;;;2.65;;
55364;SDS011;41245;45.384;20.390;2022-09-12T05:14:18;8.95;;;3.45;;
55364;SDS011;41245;45.384;20.390;2022-09-12T05:16:44;4.72;;;2.60;;
55364;SDS011;41245;45.384;20.390;2022-09-12T05:19:10;4.60;;;3.13;;
55364;SDS011;41245;45.384;20.390;2022-09-12T05:21:36;5.15;;;2.92;;
55364;SDS011;41245;45.384;20.390;2022-09-12T05:24:02;3.33;;;2.60;;
55364;SDS011;41245;45.384;20.390;2022-09-12T05:26:30;5.55;;;2.78;;
55364;SDS011;41245;45.384;20.390;2022-09-12T05:28:55;3.78;;;2.80;;
55364;SDS011;41245;45.384;20.390;2022-09-12T05:31:22;7.35;;;3.20;;
55364;SDS011;41245;45.384;20.390;2022-09-12T05:33:50;3.20;;;2.90;;
55364;SDS011;41245;45.384;20.390;2022-09-12T05:36:18;6.82;;;3.42;;
55364;SDS011;41245;45.384;20.390;2022-09-12T05:38:45;5.63;;;3.35;;
55364;SDS011;41245;45.384;20.390;2022-09-12T05:41:12;16.60;;;6.10;;
55364;SDS011;41245;45.384;20.390;2022-09-12T05:43:43;12.15;;;5.35;;
55364;SDS011;41245;45.384;20.390;2022-09-12T05:46:11;45.20;;;11.32;;
55364;SDS011;41245;45.384;20.390;2022-09-12T05:48:40;7.18;;;3.53;;
55364;SDS011;41245;45.384;20.390;2022-09-12T05:51:09;4.93;;;3.30;;
55364;SDS011;41245;45.384;20.390;2022-09-12T05:53:43;6.10;;;3.33;;
55364;SDS011;41245;45.384;20.390;2022-09-12T05:56:11;6.10;;;3.40;;
55364;SDS011;41245;45.384;20.390;2022-09-12T05:58:39;6.10;;;3.20;;
55364;SDS011;41245;45.384;20.390;2022-09-12T06:01:17;4.83;;;3.50;;
55364;SDS011;41245;45.384;20.390;2022-09-12T06:03:44;10.65;;;3.97;;
55364;SDS011;41245;45.384;20.390;2022-09-12T06:06:15;6.88;;;3.63;;
55364;SDS011;41245;45.384;20.390;2022-09-12T06:08:45;5.10;;;3.10;;
55364;SDS011;41245;45.384;20.390;2022-09-12T06:11:14;7.32;;;4.30;;
55364;SDS011;41245;45.384;20.390;2022-09-12T06:13:41;4.22;;;3.65;;
55364;SDS011;41245;45.384;20.390;2022-09-12T06:18:38;6.55;;;3.90;;
55364;SDS011;41245;45.384;20.390;2022-09-12T06:21:06;9.05;;;4.07;;
55364;SDS011;41245;45.384;20.390;2022-09-12T06:23:32;4.68;;;3.83;;
55364;SDS011;41245;45.384;20.390;2022-09-12T06:25:58;5.68;;;3.83;;
55364;SDS011;41245;45.384;20.390;2022-09-12T06:28:24;6.85;;;3.97;;
55364;SDS011;41245;45.384;20.390;2022-09-12T06:30:50;5.25;;;4.30;;
55364;SDS011;41245;45.384;20.390;2022-09-12T06:33:15;5.93;;;4.07;;
55364;SDS011;41245;45.384;20.390;2022-09-12T06:35:41;5.85;;;3.60;;
55364;SDS011;41245;45.384;20.390;2022-09-12T06:38:07;7.10;;;3.75;;
55364;SDS011;41245;45.384;20.390;2022-09-12T06:40:34;9.55;;;3.95;;
55364;SDS011;41245;45.384;20.390;2022-09-12T06:43:05;5.18;;;3.85;;
55364;SDS011;41245;45.384;20.390;2022-09-12T06:45:31;4.90;;;3.90;;
55364;SDS011;41245;45.384;20.390;2022-09-12T06:47:56;8.75;;;4.10;;
55364;SDS011;41245;45.384;20.390;2022-09-12T06:50:22;8.07;;;4.20;;
55364;SDS011;41245;45.384;20.390;2022-09-12T06:52:48;5.95;;;3.97;;
55364;SDS011;41245;45.384;20.390;2022-09-12T06:55:15;10.95;;;4.10;;
55364;SDS011;41245;45.384;20.390;2022-09-12T06:57:41;4.90;;;3.45;;
55364;SDS011;41245;45.384;20.390;2022-09-12T07:00:08;26.85;;;4.97;;
55364;SDS011;41245;45.384;20.390;2022-09-12T07:02:34;4.78;;;3.85;;
55364;SDS011;41245;45.384;20.390;2022-09-12T07:05:00;5.78;;;3.88;;
55364;SDS011;41245;45.384;20.390;2022-09-12T07:07:26;4.65;;;3.70;;
55364;SDS011;41245;45.384;20.390;2022-09-12T07:09:51;5.68;;;4.28;;
55364;SDS011;41245;45.384;20.390;2022-09-12T07:12:17;3.60;;;3.30;;
55364;SDS011;41245;45.384;20.390;2022-09-12T07:14:44;5.20;;;3.65;;
55364;SDS011;41245;45.384;20.390;2022-09-12T07:17:09;8.43;;;3.20;;
55364;SDS011;41245;45.384;20.390;2022-09-12T07:19:36;7.15;;;4.28;;
55364;SDS011;41245;45.384;20.390;2022-09-12T07:22:02;6.72;;;3.55;;
55364;SDS011;41245;45.384;20.390;2022-09-12T07:24:28;6.53;;;3.38;;
55364;SDS011;41245;45.384;20.390;2022-09-12T07:26:54;6.30;;;3.40;;
55364;SDS011;41245;45.384;20.390;2022-09-12T07:29:20;10.43;;;3.65;;
55364;SDS011;41245;45.384;20.390;2022-09-12T07:31:45;5.70;;;2.90;;
55364;SDS011;41245;45.384;20.390;2022-09-12T07:34:11;9.07;;;3.60;;
55364;SDS011;41245;45.384;20.390;2022-09-12T07:36:37;4.22;;;2.97;;
55364;SDS011;41245;45.384;20.390;2022-09-12T07:39:03;4.47;;;2.90;;
55364;SDS011;41245;45.384;20.390;2022-09-12T07:41:30;5.82;;;3.17;;
55364;SDS011;41245;45.384;20.390;2022-09-12T07:43:58;6.35;;;3.85;;
55364;SDS011;41245;45.384;20.390;2022-09-12T07:46:26;5.57;;;2.90;;
55364;SDS011;41245;45.384;20.390;2022-09-12T07:48:54;7.82;;;2.90;;
55364;SDS011;41245;45.384;20.390;2022-09-12T07:51:21;6.10;;;2.92;;
55364;SDS011;41245;45.384;20.390;2022-09-12T07:53:48;5.47;;;2.72;;
55364;SDS011;41245;45.384;20.390;2022-09-12T07:56:14;4.90;;;3.00;;
55364;SDS011;41245;45.384;20.390;2022-09-12T07:58:41;4.45;;;3.05;;
55364;SDS011;41245;45.384;20.390;2022-09-12T08:01:14;6.03;;;2.97;;
55364;SDS011;41245;45.384;20.390;2022-09-12T08:03:45;5.65;;;3.08;;
55364;SDS011;41245;45.384;20.390;2022-09-12T08:06:13;4.78;;;2.88;;
55364;SDS011;41245;45.384;20.390;2022-09-12T08:08:48;5.35;;;3.72;;
55364;SDS011;41245;45.384;20.390;2022-09-12T08:11:15;11.73;;;2.67;;
55364;SDS011;41245;45.384;20.390;2022-09-12T08:13:42;8.95;;;3.25;;
55364;SDS011;41245;45.384;20.390;2022-09-12T08:16:15;9.10;;;3.35;;
55364;SDS011;41245;45.384;20.390;2022-09-12T08:18:42;3.47;;;2.80;;
55364;SDS011;41245;45.384;20.390;2022-09-12T08:21:09;8.15;;;3.63;;
55364;SDS011;41245;45.384;20.390;2022-09-12T08:23:37;4.35;;;2.55;;
55364;SDS011;41245;45.384;20.390;2022-09-12T08:26:04;3.17;;;2.67;;
55364;SDS011;41245;45.384;20.390;2022-09-12T08:28:31;4.28;;;2.90;;
55364;SDS011;41245;45.384;20.390;2022-09-12T08:31:02;4.18;;;3.38;;
55364;SDS011;41245;45.384;20.390;2022-09-12T08:33:29;3.03;;;2.72;;
55364;SDS011;41245;45.384;20.390;2022-09-12T08:36:32;7.38;;;3.50;;
55364;SDS011;41245;45.384;20.390;2022-09-12T08:39:02;7.28;;;2.83;;
55364;SDS011;41245;45.384;20.390;2022-09-12T08:41:44;4.33;;;2.70;;
55364;SDS011;41245;45.384;20.390;2022-09-12T08:55:34;3.67;;;2.15;;
55364;SDS011;41245;45.384;20.390;2022-09-12T08:58:15;6.43;;;2.88;;
55364;SDS011;41245;45.384;20.390;2022-09-12T09:09:24;5.60;;;2.58;;
55364;SDS011;41245;45.384;20.390;2022-09-12T09:17:42;3.80;;;3.08;;
55364;SDS011;41245;45.384;20.390;2022-09-12T09:25:22;5.68;;;2.28;;
55364;SDS011;41245;45.384;20.390;2022-09-12T09:28:01;3.75;;;3.17;;
55364;SDS011;41245;45.384;20.390;2022-09-12T09:30:31;5.00;;;2.60;;
55364;SDS011;41245;45.384;20.390;2022-09-12T09:33:00;5.60;;;2.40;;
55364;SDS011;41245;45.384;20.390;2022-09-12T09:43:23;4.57;;;1.88;;
55364;SDS011;41245;45.384;20.390;2022-09-12T09:45:52;4.65;;;2.20;;
55364;SDS011;41245;45.384;20.390;2022-09-12T09:48:29;2.20;;;2.00;;
55364;SDS011;41245;45.384;20.390;2022-09-12T09:50:58;2.65;;;1.77;;
55364;SDS011;41245;45.384;20.390;2022-09-12T09:59:07;2.88;;;2.50;;
55364;SDS011;41245;45.384;20.390;2022-09-12T10:04:40;3.67;;;2.20;;
55364;SDS011;41245;45.384;20.390;2022-09-12T10:07:18;3.45;;;2.70;;
55364;SDS011;41245;45.384;20.390;2022-09-12T10:12:40;3.17;;;2.22;;
55364;SDS011;41245;45.384;20.390;2022-09-12T10:17:52;3.00;;;2.20;;
55364;SDS011;41245;45.384;20.390;2022-09-12T10:20:34;2.53;;;2.30;;
55364;SDS011;41245;45.384;20.390;2022-09-12T10:23:20;5.20;;;2.05;;
55364;SDS011;41245;45.384;20.390;2022-09-12T10:25:54;5.57;;;3.47;;
55364;SDS011;41245;45.384;20.390;2022-09-12T10:31:06;6.72;;;3.03;;
55364;SDS011;41245;45.384;20.390;2022-09-12T10:33:36;2.75;;;2.08;;
55364;SDS011;41245;45.384;20.390;2022-09-12T10:36:08;3.20;;;1.80;;
55364;SDS011;41245;45.384;20.390;2022-09-12T10:38:33;3.72;;;2.10;;
55364;SDS011;41245;45.384;20.390;2022-09-12T10:41:04;3.25;;;2.20;;
55364;SDS011;41245;45.384;20.390;2022-09-12T10:45:58;4.65;;;2.22;;
55364;SDS011;41245;45.384;20.390;2022-09-12T10:48:49;3.15;;;1.90;;
55364;SDS011;41245;45.384;20.390;2022-09-12T10:53:48;2.05;;;1.85;;
55364;SDS011;41245;45.384;20.390;2022-09-12T10:56:24;1.90;;;1.70;;
55364;SDS011;41245;45.384;20.390;2022-09-12T11:01:48;6.63;;;1.73;;
55364;SDS011;41245;45.384;20.390;2022-09-12T11:15:32;3.58;;;2.15;;
55364;SDS011;41245;45.384;20.390;2022-09-12T11:26:41;2.10;;;1.90;;
55364;SDS011;41245;45.384;20.390;2022-09-12T11:29:15;8.40;;;2.00;;
55364;SDS011;41245;45.384;20.390;2022-09-12T11:34:34;4.22;;;1.90;;
55364;SDS011;41245;45.384;20.390;2022-09-12T11:40:05;27.10;;;3.95;;
55364;SDS011;41245;45.384;20.390;2022-09-12T11:42:39;4.45;;;2.35;;
55364;SDS011;41245;45.384;20.390;2022-09-12T11:45:14;13.32;;;3.00;;
55364;SDS011;41245;45.384;20.390;2022-09-12T11:47:50;4.80;;;1.70;;
55364;SDS011;41245;45.384;20.390;2022-09-12T11:50:28;3.40;;;1.77;;
55364;SDS011;41245;45.384;20.390;2022-09-12T11:53:15;5.05;;;2.00;;
55364;SDS011;41245;45.384;20.390;2022-09-12T11:58:33;4.65;;;2.58;;
55364;SDS011;41245;45.384;20.390;2022-09-12T12:01:12;8.13;;;1.52;;
55364;SDS011;41245;45.384;20.390;2022-09-12T12:03:45;4.05;;;1.80;;
55364;SDS011;41245;45.384;20.390;2022-09-12T12:06:16;2.63;;;2.28;;
55364;SDS011;41245;45.384;20.390;2022-09-12T12:08:46;3.17;;;2.08;;
55364;SDS011;41245;45.384;20.390;2022-09-12T12:11:15;2.37;;;2.03;;
55364;SDS011;41245;45.384;20.390;2022-09-12T12:13:56;3.05;;;2.20;;
55364;SDS011;41245;45.384;20.390;2022-09-12T12:16:27;4.25;;;2.15;;
55364;SDS011;41245;45.384;20.390;2022-09-12T12:18:57;2.40;;;2.20;;
55364;SDS011;41245;45.384;20.390;2022-09-12T12:29:03;2.17;;;1.98;;
55364;SDS011;41245;45.384;20.390;2022-09-12T12:31:32;2.13;;;1.65;;
55364;SDS011;41245;45.384;20.390;2022-09-12T12:34:34;6.35;;;2.38;;
55364;SDS011;41245;45.384;20.390;2022-09-12T12:52:32;2.65;;;1.50;;
55364;SDS011;41245;45.384;20.390;2022-09-12T12:55:16;6.60;;;1.95;;
55364;SDS011;41245;45.384;20.390;2022-09-12T12:57:57;6.18;;;2.20;;
55364;SDS011;41245;45.384;20.390;2022-09-12T13:02:58;4.32;;;2.28;;
55364;SDS011;41245;45.384;20.390;2022-09-12T13:06:04;4.50;;;1.75;;
55364;SDS011;41245;45.384;20.390;2022-09-12T13:08:29;3.90;;;1.60;;
55364;SDS011;41245;45.384;20.390;2022-09-12T13:11:06;1.60;;;1.40;;
55364;SDS011;41245;45.384;20.390;2022-09-12T13:13:39;5.03;;;1.77;;
55364;SDS011;41245;45.384;20.390;2022-09-12T13:16:27;3.42;;;1.42;;
55364;SDS011;41245;45.384;20.390;2022-09-12T13:19:04;3.17;;;2.00;;
55364;SDS011;41245;45.384;20.390;2022-09-12T13:21:36;4.28;;;1.60;;
55364;SDS011;41245;45.384;20.390;2022-09-12T13:24:04;3.33;;;2.40;;
55364;SDS011;41245;45.384;20.390;2022-09-12T13:26:41;1.90;;;1.70;;
55364;SDS011;41245;45.384;20.390;2022-09-12T13:31:40;3.33;;;1.85;;
55364;SDS011;41245;45.384;20.390;2022-09-12T13:34:06;3.00;;;1.58;;
55364;SDS011;41245;45.384;20.390;2022-09-12T13:47:52;1.27;;;1.13;;
55364;SDS011;41245;45.384;20.390;2022-09-12T13:50:27;2.10;;;1.50;;
55364;SDS011;41245;45.384;20.390;2022-09-12T13:53:02;5.25;;;1.38;;
55364;SDS011;41245;45.384;20.390;2022-09-12T13:55:34;2.20;;;1.70;;
55364;SDS011;41245;45.384;20.390;2022-09-12T13:58:14;4.32;;;2.50;;
55364;SDS011;41245;45.384;20.390;2022-09-12T14:00:40;4.43;;;2.10;;
55364;SDS011;41245;45.384;20.390;2022-09-12T14:03:23;9.05;;;1.85;;
55364;SDS011;41245;45.384;20.390;2022-09-12T14:06:09;2.78;;;1.70;;
55364;SDS011;41245;45.384;20.390;2022-09-12T14:08:39;3.13;;;1.65;;
55364;SDS011;41245;45.384;20.390;2022-09-12T14:11:17;3.47;;;1.70;;
55364;SDS011;41245;45.384;20.390;2022-09-12T14:13:49;1.20;;;1.10;;
55364;SDS011;41245;45.384;20.390;2022-09-12T14:16:16;5.43;;;1.40;;
55364;SDS011;41245;45.384;20.390;2022-09-12T14:18:45;3.15;;;1.20;;
55364;SDS011;41245;45.384;20.390;2022-09-12T14:21:19;2.92;;;1.50;;
55364;SDS011;41245;45.384;20.390;2022-09-12T14:23:58;1.38;;;1.20;;
55364;SDS011;41245;45.384;20.390;2022-09-12T14:26:25;2.28;;;1.70;;
55364;SDS011;41245;45.384;20.390;2022-09-12T14:28:59;4.28;;;1.70;;
55364;SDS011;41245;45.384;20.390;2022-09-12T14:31:36;2.70;;;1.55;;
55364;SDS011;41245;45.384;20.390;2022-09-12T14:34:13;2.28;;;1.70;;
55364;SDS011;41245;45.384;20.390;2022-09-12T14:36:47;2.13;;;1.63;;
55364;SDS011;41245;45.384;20.390;2022-09-12T14:39:28;4.28;;;2.33;;
55364;SDS011;41245;45.384;20.390;2022-09-12T14:42:03;2.13;;;1.92;;
55364;SDS011;41245;45.384;20.390;2022-09-12T14:44:37;3.47;;;1.95;;
55364;SDS011;41245;45.384;20.390;2022-09-12T14:47:11;11.45;;;2.20;;
55364;SDS011;41245;45.384;20.390;2022-09-12T14:49:48;7.60;;;2.05;;
55364;SDS011;41245;45.384;20.390;2022-09-12T14:52:24;1.98;;;1.13;;
55364;SDS011;41245;45.384;20.390;2022-09-12T14:54:57;3.22;;;1.92;;
55364;SDS011;41245;45.384;20.390;2022-09-12T14:57:41;2.00;;;1.75;;
55364;SDS011;41245;45.384;20.390;2022-09-12T15:02:37;5.43;;;3.90;;
55364;SDS011;41245;45.384;20.390;2022-09-12T15:07:36;5.75;;;2.10;;
55364;SDS011;41245;45.384;20.390;2022-09-12T15:12:35;4.20;;;1.67;;
55364;SDS011;41245;45.384;20.390;2022-09-12T15:15:17;6.07;;;1.98;;
55364;SDS011;41245;45.384;20.390;2022-09-12T15:17:44;2.15;;;1.50;;
55364;SDS011;41245;45.384;20.390;2022-09-12T15:20:10;6.63;;;2.28;;
55364;SDS011;41245;45.384;20.390;2022-09-12T15:22:37;5.00;;;2.03;;
55364;SDS011;41245;45.384;20.390;2022-09-12T15:25:04;5.65;;;4.00;;
55364;SDS011;41245;45.384;20.390;2022-09-12T15:27:31;4.22;;;1.95;;
55364;SDS011;41245;45.384;20.390;2022-09-12T15:29:57;4.15;;;1.75;;
55364;SDS011;41245;45.384;20.390;2022-09-12T15:32:26;4.70;;;1.90;;
55364;SDS011;41245;45.384;20.390;2022-09-12T15:34:54;5.68;;;1.95;;
55364;SDS011;41245;45.384;20.390;2022-09-12T15:37:21;9.30;;;1.60;;
55364;SDS011;41245;45.384;20.390;2022-09-12T15:39:47;6.13;;;2.03;;
55364;SDS011;41245;45.384;20.390;2022-09-12T15:42:14;7.22;;;2.53;;
55364;SDS011;41245;45.384;20.390;2022-09-12T15:44:41;2.53;;;2.00;;
55364;SDS011;41245;45.384;20.390;2022-09-12T15:47:11;4.97;;;1.42;;
55364;SDS011;41245;45.384;20.390;2022-09-12T15:49:38;1.63;;;1.45;;
55364;SDS011;41245;45.384;20.390;2022-09-12T15:52:05;4.93;;;2.60;;
55364;SDS011;41245;45.384;20.390;2022-09-12T15:54:31;3.85;;;1.92;;
55364;SDS011;41245;45.384;20.390;2022-09-12T15:56:57;2.50;;;2.30;;
55364;SDS011;41245;45.384;20.390;2022-09-12T15:59:23;4.05;;;2.40;;
55364;SDS011;41245;45.384;20.390;2022-09-12T16:01:49;7.18;;;2.55;;
55364;SDS011;41245;45.384;20.390;2022-09-12T16:04:22;5.85;;;2.58;;
55364;SDS011;41245;45.384;20.390;2022-09-12T16:06:49;8.43;;;3.30;;
55364;SDS011;41245;45.384;20.390;2022-09-12T16:09:16;7.13;;;1.67;;
55364;SDS011;41245;45.384;20.390;2022-09-12T16:11:42;3.33;;;2.53;;
55364;SDS011;41245;45.384;20.390;2022-09-12T16:14:09;7.55;;;3.25;;
55364;SDS011;41245;45.384;20.390;2022-09-12T16:16:38;6.57;;;3.15;;
55364;SDS011;41245;45.384;20.390;2022-09-12T16:19:04;6.00;;;2.22;;
55364;SDS011;41245;45.384;20.390;2022-09-12T16:21:30;11.18;;;1.98;;
55364;SDS011;41245;45.384;20.390;2022-09-12T16:23:56;24.90;;;2.47;;
55364;SDS011;41245;45.384;20.390;2022-09-12T16:26:22;14.05;;;3.80;;
55364;SDS011;41245;45.384;20.390;2022-09-12T16:28:53;7.97;;;3.08;;
55364;SDS011;41245;45.384;20.390;2022-09-12T16:31:23;7.28;;;2.85;;
55364;SDS011;41245;45.384;20.390;2022-09-12T16:33:49;11.05;;;4.78;;
55364;SDS011;41245;45.384;20.390;2022-09-12T16:36:16;6.28;;;2.88;;
55364;SDS011;41245;45.384;20.390;2022-09-12T16:38:44;9.57;;;3.70;;
55364;SDS011;41245;45.384;20.390;2022-09-12T16:41:12;9.60;;;2.63;;
55364;SDS011;41245;45.384;20.390;2022-09-12T16:43:38;9.15;;;4.05;;
55364;SDS011;41245;45.384;20.390;2022-09-12T16:46:06;7.07;;;2.50;;
55364;SDS011;41245;45.384;20.390;2022-09-12T16:48:34;7.40;;;2.88;;
55364;SDS011;41245;45.384;20.390;2022-09-12T16:51:02;9.85;;;2.85;;
55364;SDS011;41245;45.384;20.390;2022-09-12T16:53:34;10.73;;;2.63;;
55364;SDS011;41245;45.384;20.390;2022-09-12T16:56:01;6.55;;;2.67;;
55364;SDS011;41245;45.384;20.390;2022-09-12T16:58:30;11.02;;;2.85;;
55364;SDS011;41245;45.384;20.390;2022-09-12T17:00:58;9.50;;;3.33;;
55364;SDS011;41245;45.384;20.390;2022-09-12T17:03:28;20.63;;;3.03;;
55364;SDS011;41245;45.384;20.390;2022-09-12T17:05:58;7.53;;;3.40;;
55364;SDS011;41245;45.384;20.390;2022-09-12T17:08:24;12.23;;;3.90;;
55364;SDS011;41245;45.384;20.390;2022-09-12T17:10:49;12.23;;;5.63;;
55364;SDS011;41245;45.384;20.390;2022-09-12T17:13:15;7.80;;;3.72;;
55364;SDS011;41245;45.384;20.390;2022-09-12T17:15:41;8.40;;;3.45;;
55364;SDS011;41245;45.384;20.390;2022-09-12T17:18:07;5.60;;;3.50;;
55364;SDS011;41245;45.384;20.390;2022-09-12T17:20:34;7.85;;;3.78;;
55364;SDS011;41245;45.384;20.390;2022-09-12T17:23:00;12.52;;;4.88;;
55364;SDS011;41245;45.384;20.390;2022-09-12T17:25:25;13.05;;;4.55;;
55364;SDS011;41245;45.384;20.390;2022-09-12T17:27:51;12.90;;;4.65;;
55364;SDS011;41245;45.384;20.390;2022-09-12T17:30:17;6.57;;;2.83;;
55364;SDS011;41245;45.384;20.390;2022-09-12T17:32:43;12.82;;;2.90;;
55364;SDS011;41245;45.384;20.390;2022-09-12T17:35:09;23.85;;;3.80;;
55364;SDS011;41245;45.384;20.390;2022-09-12T17:37:35;18.70;;;3.95;;
55364;SDS011;41245;45.384;20.390;2022-09-12T17:40:01;10.25;;;4.25;;
55364;SDS011;41245;45.384;20.390;2022-09-12T17:42:28;8.35;;;3.08;;
55364;SDS011;41245;45.384;20.390;2022-09-12T17:44:53;9.25;;;3.75;;
55364;SDS011;41245;45.384;20.390;2022-09-12T17:47:22;12.43;;;3.03;;
55364;SDS011;41245;45.384;20.390;2022-09-12T17:49:47;9.65;;;3.15;;
55364;SDS011;41245;45.384;20.390;2022-09-12T17:52:14;11.93;;;4.07;;
55364;SDS011;41245;45.384;20.390;2022-09-12T17:54:40;11.82;;;4.22;;
55364;SDS011;41245;45.384;20.390;2022-09-12T17:57:06;10.73;;;3.38;;
55364;SDS011;41245;45.384;20.390;2022-09-12T17:59:32;7.07;;;3.33;;
55364;SDS011;41245;45.384;20.390;2022-09-12T18:01:58;11.75;;;3.55;;
55364;SDS011;41245;45.384;20.390;2022-09-12T18:04:40;7.15;;;3.53;;
55364;SDS011;41245;45.384;20.390;2022-09-12T18:07:11;5.57;;;3.92;;
55364;SDS011;41245;45.384;20.390;2022-09-12T18:09:37;11.45;;;4.40;;